Time;durP1;ratioP1;P1;durP2;ratioP2;P2;SDS_P1;SDS_P2;PMS_P1;PMS_P2;Temp;Humidity;BMP_temperature;BMP_pressure;BME280_temperature;BME280_humidity;BME280_pressure;Samples;Min_cycle;Max_cycle;Signal;HPM_P1;HPM_P2
2022/10/20 00:00:26;;;;;;;;;;;;;;;;;;5135752;27;19919;-60
2022/10/20 00:02:51;;;;;;;;;;;;;;;;;;5136230;27;19911;-60
2022/10/20 00:05:16;;;;;;;;;;;;;;;;;;5136054;27;20437;-60
2022/10/20 00:07:41;;;;;;;;;;;;;;;;;;5136112;27;19921;-59
2022/10/20 00:10:06;;;;;;;;;;;;;;;;;;5135786;27;19952;-60
2022/10/20 00:12:31;;;;;;;;;;;;;;;;;;5136053;27;19960;-60
2022/10/20 00:14:57;;;;;;;;;;;;;;;;;;5136030;27;20274;-58
2022/10/20 00:17:22;;;;;;;;;;;;;;;;;;5136009;27;19998;-60
2022/10/20 00:19:47;;;;;;;;;;;;;;;;;;5135717;27;19954;-59
2022/10/20 00:22:12;;;;;;;;;;;;;;;;;;5135684;27;19908;-59
2022/10/20 00:24:37;;;;;;;;;;;;;;;;;;5135592;27;19907;-59
2022/10/20 00:27:02;;;;;;;;;;;;;;;;;;5135442;27;20389;-59
2022/10/20 00:29:27;;;;;;;;;;;;;;;;;;5136013;27;20286;-59
2022/10/20 00:31:52;;;;;;;;;;;;;;;;;;5135471;27;19922;-59
2022/10/20 00:34:17;;;;;;;;;;;;;;;;;;5135150;27;19907;-59
2022/10/20 00:36:42;;;;;;;;;;;;;;;;;;5135707;27;19950;-61
2022/10/20 00:39:07;;;;;;;;;;;;;;;;;;5135333;27;19934;-60
2022/10/20 00:41:33;;;;;;;;;;;;;;;;;;5135350;27;19916;-60
2022/10/20 00:43:58;;;;;;;;;;;;;;;;;;5135344;27;19915;-60
2022/10/20 00:46:23;;;;;;;;;;;;;;;;;;5135286;27;19912;-60
2022/10/20 00:48:48;;;;;;;;;;;;;;;;;;5135440;27;19918;-60
2022/10/20 00:51:13;;;;;;;;;;;;;;;;;;5135102;27;19918;-60
2022/10/20 00:53:38;;;;;;;;;;;;;;;;;;5135101;27;19976;-59
2022/10/20 00:56:03;;;;;;;;;;;;;;;;;;5135100;27;19908;-59
2022/10/20 00:58:28;;;;;;;;;;;;;;;;;;5135017;27;20332;-60
2022/10/20 01:00:53;;;;;;;;;;;;;;;;;;5135162;27;20322;-60
2022/10/20 01:03:19;;;;;;;;;;;;;;;;;;5134911;27;20495;-59
2022/10/20 01:05:44;;;;;;;;;;;;;;;;;;5134489;27;19907;-60
2022/10/20 01:08:09;;;;;;;;;;;;;;;;;;5135019;27;19915;-59
2022/10/20 01:10:34;;;;;;;;;;;;;;;;;;5134673;27;19923;-60
2022/10/20 01:12:59;;;;;;;;;;;;;;;;;;5134696;27;19907;-59
2022/10/20 01:15:24;;;;;;;;;;;;;;;;;;5135120;27;19908;-59
2022/10/20 01:17:49;;;;;;;;;;;;;;;;;;5134787;27;19908;-59
2022/10/20 01:20:14;;;;;;;;;;;;;;;;;;5134322;27;19922;-59
2022/10/20 01:22:39;;;;;;;;;;;;;;;;;;5134691;27;20373;-60
2022/10/20 01:25:04;;;;;;;;;;;;;;;;;;5134945;27;19904;-59
2022/10/20 01:27:29;;;;;;;;;;;;;;;;;;5134887;27;19918;-59
2022/10/20 01:29:54;;;;;;;;;;;;;;;;;;5134322;27;19907;-60
2022/10/20 01:32:19;;;;;;;;;;;;;;;;;;5134227;27;19916;-59
2022/10/20 01:34:45;;;;;;;;;;;;;;;;;;5134608;27;19907;-59
2022/10/20 01:37:10;;;;;;;;;;;;;;;;;;5134433;27;19915;-59
2022/10/20 01:39:35;;;;;;;;;;;;;;;;;;5134257;27;19946;-58
2022/10/20 01:42:00;;;;;;;;;;;;;;;;;;5134070;27;19915;-59
2022/10/20 01:44:25;;;;;;;;;;;;;;;;;;5134056;27;20281;-59
2022/10/20 01:46:50;;;;;;;;;;;;;;;;;;5134339;27;19933;-59
2022/10/20 01:49:15;;;;;;;;;;;;;;;;;;5133984;27;19914;-59
2022/10/20 01:51:40;;;;;;;;;;;;;;;;;;5134063;27;19911;-59
2022/10/20 01:54:05;;;;;;;;;;;;;;;;;;5133778;27;20445;-59
2022/10/20 01:56:30;;;;;;;;;;;;;;;;;;5133863;27;19967;-60
2022/10/20 01:58:55;;;;;;;;;;;;;;;;;;5134145;27;19914;-59
2022/10/20 02:01:20;;;;;;;;;;;;;;;;;;5133592;27;19934;-60
2022/10/20 02:03:46;;;;;;;;;;;;;;;;;;5133909;27;19914;-59
2022/10/20 02:06:11;;;;;;;;;;;;;;;;;;5133588;27;19908;-60
2022/10/20 02:08:36;;;;;;;;;;;;;;;;;;5133588;27;20381;-59
2022/10/20 02:11:01;;;;;;;;;;;;;;;;;;5133503;27;19912;-59
2022/10/20 02:13:26;;;;;;;;;;;;;;;;;;5133760;27;19907;-59
2022/10/20 02:15:51;;;;;;;;;;;;;;;;;;5133430;27;19998;-59
2022/10/20 02:18:16;;;;;;;;;;;;;;;;;;5132836;27;20274;-59
2022/10/20 02:20:41;;;;;;;;;;;;;;;;;;5133306;27;20434;-59
2022/10/20 02:23:06;;;;;;;;;;;;;;;;;;5133487;27;19908;-59
2022/10/20 02:25:31;;;;;;;;;;;;;;;;;;5133224;27;19977;-58
2022/10/20 02:27:56;;;;;;;;;;;;;;;;;;5133303;27;19918;-59
2022/10/20 02:30:21;;;;;;;;;;;;;;;;;;5133199;27;19960;-59
2022/10/20 02:32:48;;;;;;;;;;;;;;;;;;5133370;27;19908;-59
2022/10/20 02:35:13;;;;;;;;;;;;;;;;;;5133502;27;19949;-59
2022/10/20 02:37:38;;;;;;;;;;;;;;;;;;5132974;27;19941;-59
2022/10/20 02:40:03;;;;;;;;;;;;;;;;;;5133296;27;19915;-59
2022/10/20 02:42:28;;;;;;;;;;;;;;;;;;5132425;27;19908;-59
2022/10/20 02:44:54;;;;;;;;;;;;;;;;;;5133130;27;20033;-59
2022/10/20 02:47:19;;;;;;;;;;;;;;;;;;5133079;27;19914;-58
2022/10/20 02:49:45;;;;;;;;;;;;;;;;;;5132972;27;20286;-59
2022/10/20 02:52:10;;;;;;;;;;;;;;;;;;5132888;27;19918;-59
2022/10/20 02:54:35;;;;;;;;;;;;;;;;;;5132722;27;19941;-59
2022/10/20 02:57:00;;;;;;;;;;;;;;;;;;5132913;27;19980;-59
2022/10/20 02:59:25;;;;;;;;;;;;;;;;;;5132828;27;20350;-60
2022/10/20 03:01:51;;;;;;;;;;;;;;;;;;5132320;27;19994;-60
2022/10/20 03:04:16;;;;;;;;;;;;;;;;;;5132589;27;20370;-59
2022/10/20 03:06:41;;;;;;;;;;;;;;;;;;5132958;27;19919;-61
2022/10/20 03:09:06;;;;;;;;;;;;;;;;;;5132804;27;20036;-61
2022/10/20 03:11:31;;;;;;;;;;;;;;;;;;5132315;27;19911;-62
2022/10/20 03:13:56;;;;;;;;;;;;;;;;;;5132563;27;19994;-61
2022/10/20 03:16:22;;;;;;;;;;;;;;;;;;5128808;27;20388;-61
2022/10/20 03:18:47;;;;;;;;;;;;;;;;;;5132736;27;19930;-61
2022/10/20 03:21:12;;;;;;;;;;;;;;;;;;5132591;27;19958;-61
2022/10/20 03:23:37;;;;;;;;;;;;;;;;;;5132152;27;19916;-61
2022/10/20 03:26:02;;;;;;;;;;;;;;;;;;5132519;27;19907;-61
2022/10/20 03:28:27;;;;;;;;;;;;;;;;;;5132457;27;19907;-60
2022/10/20 03:30:52;;;;;;;;;;;;;;;;;;5132267;27;20060;-61
2022/10/20 03:33:17;;;;;;;;;;;;;;;;;;5131977;27;19908;-60
2022/10/20 03:35:42;;;;;;;;;;;;;;;;;;5132300;28;19918;-61
2022/10/20 03:38:07;;;;;;;;;;;;;;;;;;5132450;28;19907;-61
2022/10/20 03:40:32;;;;;;;;;;;;;;;;;;5131934;28;19916;-60
2022/10/20 03:42:57;;;;;;;;;;;;;;;;;;5132074;28;20329;-61
2022/10/20 03:45:23;;;;;;;;;;;;;;;;;;5132373;28;20357;-61
2022/10/20 03:47:48;;;;;;;;;;;;;;;;;;5132241;28;20361;-61
2022/10/20 03:50:13;;;;;;;;;;;;;;;;;;5132325;28;20337;-61
2022/10/20 03:52:38;;;;;;;;;;;;;;;;;;5131819;28;19921;-61
2022/10/20 03:55:03;;;;;;;;;;;;;;;;;;5132422;28;19952;-61
2022/10/20 03:57:28;;;;;;;;;;;;;;;;;;5132102;28;20277;-61
2022/10/20 03:59:53;;;;;;;;;;;;;;;;;;5132214;28;19963;-61
2022/10/20 04:02:18;;;;;;;;;;;;;;;;;;5131830;28;20048;-61
2022/10/20 04:04:43;;;;;;;;;;;;;;;;;;5131983;28;19911;-61
2022/10/20 04:07:08;;;;;;;;;;;;;;;;;;5132063;28;19930;-60
2022/10/20 04:09:33;;;;;;;;;;;;;;;;;;5132047;28;19907;-61
2022/10/20 04:11:58;;;;;;;;;;;;;;;;;;5131703;28;19912;-60
2022/10/20 04:14:23;;;;;;;;;;;;;;;;;;5132001;28;20033;-61
2022/10/20 04:16:49;;;;;;;;;;;;;;;;;;5131913;28;19943;-61
2022/10/20 04:19:14;;;;;;;;;;;;;;;;;;5131939;28;20366;-60
2022/10/20 04:21:39;;;;;;;;;;;;;;;;;;5131914;28;19920;-61
2022/10/20 04:24:06;;;;;;;;;;;;;;;;;;5132229;28;19957;-60
2022/10/20 04:26:31;;;;;;;;;;;;;;;;;;5131838;28;19912;-61
2022/10/20 04:28:56;;;;;;;;;;;;;;;;;;5132125;28;19911;-59
2022/10/20 04:31:21;;;;;;;;;;;;;;;;;;5131591;28;19923;-59
2022/10/20 04:33:46;;;;;;;;;;;;;;;;;;5131683;28;19919;-59
2022/10/20 04:36:11;;;;;;;;;;;;;;;;;;5131987;28;19915;-59
2022/10/20 04:38:36;;;;;;;;;;;;;;;;;;5131761;28;20353;-59
2022/10/20 04:41:03;;;;;;;;;;;;;;;;;;5134187;27;19916;-59
2022/10/20 04:43:28;;;;;;;;;;;;;;;;;;5135277;27;19907;-59
2022/10/20 04:45:57;;;;;;;;;;;;;;;;;;5135524;27;20056;-59
2022/10/20 04:48:22;;;;;;;;;;;;;;;;;;5135412;27;20249;-59
2022/10/20 04:50:47;;;;;;;;;;;;;;;;;;5135246;27;20281;-59
2022/10/20 04:53:12;;;;;;;;;;;;;;;;;;5134906;27;19908;-60
2022/10/20 04:55:37;;;;;;;;;;;;;;;;;;5134967;27;19912;-60
2022/10/20 04:58:02;;;;;;;;;;;;;;;;;;5135454;27;19939;-60
2022/10/20 05:00:27;;;;;;;;;;;;;;;;;;5134930;27;19973;-59
2022/10/20 05:02:52;;;;;;;;;;;;;;;;;;5135243;27;19908;-59
2022/10/20 05:05:18;;;;;;;;;;;;;;;;;;5135318;27;19907;-59
2022/10/20 05:07:43;;;;;;;;;;;;;;;;;;5134744;27;20258;-59
2022/10/20 05:10:08;;;;;;;;;;;;;;;;;;5134975;27;19912;-59
2022/10/20 05:12:33;;;;;;;;;;;;;;;;;;5134512;27;19908;-59
2022/10/20 05:14:58;;;;;;;;;;;;;;;;;;5134861;27;19914;-60
2022/10/20 05:17:23;;;;;;;;;;;;;;;;;;5134954;27;20401;-59
2022/10/20 05:19:48;;;;;;;;;;;;;;;;;;5134565;27;20289;-59
2022/10/20 05:22:13;;;;;;;;;;;;;;;;;;5134386;27;19908;-59
2022/10/20 05:24:38;;;;;;;;;;;;;;;;;;5134329;27;19914;-60
2022/10/20 05:27:03;;;;;;;;;;;;;;;;;;5134770;27;19953;-59
2022/10/20 05:29:28;;;;;;;;;;;;;;;;;;5134666;27;19998;-59
2022/10/20 05:31:53;;;;;;;;;;;;;;;;;;5134299;27;19915;-60
2022/10/20 05:34:19;;;;;;;;;;;;;;;;;;5114918;27;20033;-60
2022/10/20 05:36:44;;;;;;;;;;;;;;;;;;5134345;27;20327;-60
2022/10/20 05:39:09;;;;;;;;;;;;;;;;;;5134647;27;19907;-60
2022/10/20 05:41:35;;;;;;;;;;;;;;;;;;5133529;27;19922;-59
2022/10/20 05:44:00;;;;;;;;;;;;;;;;;;5133859;27;19911;-60
2022/10/20 05:46:25;;;;;;;;;;;;;;;;;;5134552;27;19966;-60
2022/10/20 05:48:50;;;;;;;;;;;;;;;;;;5134253;27;19920;-60
2022/10/20 05:51:15;;;;;;;;;;;;;;;;;;5134196;27;20003;-60
2022/10/20 05:53:40;;;;;;;;;;;;;;;;;;5133624;27;19979;-58
2022/10/20 05:56:05;;;;;;;;;;;;;;;;;;5134197;27;19911;-59
2022/10/20 05:58:30;;;;;;;;;;;;;;;;;;5134019;27;19947;-60
2022/10/20 06:00:55;;;;;;;;;;;;;;;;;;5134034;27;19911;-58
2022/10/20 06:03:20;;;;;;;;;;;;;;;;;;5133661;27;19993;-59
2022/10/20 06:05:46;;;;;;;;;;;;;;;;;;5133625;27;19907;-59
2022/10/20 06:08:11;;;;;;;;;;;;;;;;;;5133843;27;19986;-60
2022/10/20 06:10:36;;;;;;;;;;;;;;;;;;5134014;27;19911;-64
2022/10/20 06:13:01;;;;;;;;;;;;;;;;;;5133470;27;20331;-60
2022/10/20 06:15:26;;;;;;;;;;;;;;;;;;5133825;27;19946;-60
2022/10/20 06:17:51;;;;;;;;;;;;;;;;;;5133751;27;19907;-59
2022/10/20 06:20:16;;;;;;;;;;;;;;;;;;5133213;27;19915;-60
2022/10/20 06:22:41;;;;;;;;;;;;;;;;;;5133157;27;19952;-60
2022/10/20 06:25:06;;;;;;;;;;;;;;;;;;5133470;27;19962;-60
2022/10/20 06:27:31;;;;;;;;;;;;;;;;;;5133374;27;19911;-59
2022/10/20 06:29:56;;;;;;;;;;;;;;;;;;5133120;27;20377;-59
2022/10/20 06:32:21;;;;;;;;;;;;;;;;;;5133104;27;20370;-60
2022/10/20 06:34:47;;;;;;;;;;;;;;;;;;5133327;27;19914;-58
2022/10/20 06:37:12;;;;;;;;;;;;;;;;;;5133464;27;19943;-59
2022/10/20 06:39:37;;;;;;;;;;;;;;;;;;5132891;27;19930;-59
2022/10/20 06:42:04;;;;;;;;;;;;;;;;;;5133035;27;19982;-58
2022/10/20 06:44:29;;;;;;;;;;;;;;;;;;5133263;27;19960;-59
2022/10/20 06:46:54;;;;;;;;;;;;;;;;;;5133027;27;19908;-60
2022/10/20 06:49:19;;;;;;;;;;;;;;;;;;5132951;27;19918;-59
2022/10/20 06:51:44;;;;;;;;;;;;;;;;;;5132850;27;20379;-59
2022/10/20 06:54:10;;;;;;;;;;;;;;;;;;5133056;27;19942;-60
2022/10/20 06:56:35;;;;;;;;;;;;;;;;;;5133113;27;19907;-60
2022/10/20 06:59:00;;;;;;;;;;;;;;;;;;5132890;27;19940;-60
2022/10/20 07:01:25;;;;;;;;;;;;;;;;;;5132861;27;20289;-58
2022/10/20 07:03:50;;;;;;;;;;;;;;;;;;5131612;27;19966;-60
2022/10/20 07:06:15;;;;;;;;;;;;;;;;;;5132844;27;20324;-59
2022/10/20 07:08:40;;;;;;;;;;;;;;;;;;5132705;27;19912;-59
2022/10/20 07:11:05;;;;;;;;;;;;;;;;;;5132556;27;19954;-59
2022/10/20 07:13:30;;;;;;;;;;;;;;;;;;5132467;27;19918;-58
2022/10/20 07:15:55;;;;;;;;;;;;;;;;;;5132630;27;19911;-59
2022/10/20 07:18:20;;;;;;;;;;;;;;;;;;5133182;27;19911;-58
2022/10/20 07:20:46;;;;;;;;;;;;;;;;;;5132394;27;20014;-58
2022/10/20 07:23:11;;;;;;;;;;;;;;;;;;5132239;27;19908;-58
2022/10/20 07:25:36;;;;;;;;;;;;;;;;;;5132038;27;19912;-59
2022/10/20 07:28:01;;;;;;;;;;;;;;;;;;5132384;27;19914;-59
2022/10/20 07:30:26;;;;;;;;;;;;;;;;;;5132269;27;19919;-58
2022/10/20 07:32:51;;;;;;;;;;;;;;;;;;5132014;27;20354;-58
2022/10/20 07:35:16;;;;;;;;;;;;;;;;;;5132332;28;20024;-58
2022/10/20 07:37:41;;;;;;;;;;;;;;;;;;5132144;28;19910;-58
2022/10/20 07:40:06;;;;;;;;;;;;;;;;;;5132310;28;19927;-58
2022/10/20 07:42:31;;;;;;;;;;;;;;;;;;5131900;28;20299;-58
2022/10/20 07:44:56;;;;;;;;;;;;;;;;;;5132276;28;20358;-58
2022/10/20 07:47:21;;;;;;;;;;;;;;;;;;5132333;28;19908;-58
2022/10/20 07:49:46;;;;;;;;;;;;;;;;;;5132172;28;19907;-59
2022/10/20 07:52:12;;;;;;;;;;;;;;;;;;5131907;28;19994;-59
2022/10/20 07:54:37;;;;;;;;;;;;;;;;;;5132193;28;19960;-62
2022/10/20 07:57:02;;;;;;;;;;;;;;;;;;5131964;28;19915;-58
2022/10/20 07:59:28;;;;;;;;;;;;;;;;;;5132169;28;19908;-59
2022/10/20 08:01:53;;;;;;;;;;;;;;;;;;5132038;28;19922;-59
2022/10/20 08:04:18;;;;;;;;;;;;;;;;;;5131919;28;19907;-59
2022/10/20 08:06:46;;;;;;;;;;;;;;;;;;5131757;28;19908;-59
2022/10/20 08:09:11;;;;;;;;;;;;;;;;;;5132121;28;19914;-60
2022/10/20 08:11:36;;;;;;;;;;;;;;;;;;5132126;28;20022;-59
2022/10/20 08:14:01;;;;;;;;;;;;;;;;;;5131750;27;19911;-58
2022/10/20 08:16:26;;;;;;;;;;;;;;;;;;5135458;27;19995;-59
2022/10/20 08:18:51;;;;;;;;;;;;;;;;;;5135806;27;19908;-59
2022/10/20 08:21:16;;;;;;;;;;;;;;;;;;5135694;27;20474;-59
2022/10/20 08:23:41;;;;;;;;;;;;;;;;;;5135786;27;20358;-58
2022/10/20 08:26:06;;;;;;;;;;;;;;;;;;5135639;27;19911;-59
2022/10/20 08:28:31;;;;;;;;;;;;;;;;;;5135836;27;19938;-59
2022/10/20 08:30:57;;;;;;;;;;;;;;;;;;5135312;27;20330;-59
2022/10/20 08:33:22;;;;;;;;;;;;;;;;;;5135427;27;19908;-59
2022/10/20 08:35:47;;;;;;;;;;;;;;;;;;5135584;27;19915;-59
2022/10/20 08:38:12;;;;;;;;;;;;;;;;;;5135718;27;19908;-59
2022/10/20 08:40:37;;;;;;;;;;;;;;;;;;5135445;27;19922;-60
2022/10/20 08:43:02;;;;;;;;;;;;;;;;;;5135210;27;19919;-58
2022/10/20 08:45:28;;;;;;;;;;;;;;;;;;5135567;27;20377;-59
2022/10/20 08:47:53;;;;;;;;;;;;;;;;;;5135482;27;19911;-58
2022/10/20 08:50:18;;;;;;;;;;;;;;;;;;5135537;27;19943;-58
2022/10/20 08:52:43;;;;;;;;;;;;;;;;;;5135002;27;20377;-59
2022/10/20 08:55:08;;;;;;;;;;;;;;;;;;5135109;27;19912;-58
2022/10/20 08:57:33;;;;;;;;;;;;;;;;;;5135217;27;19907;-57
2022/10/20 08:59:58;;;;;;;;;;;;;;;;;;5135080;27;19918;-57
2022/10/20 09:02:23;;;;;;;;;;;;;;;;;;5135200;27;19937;-58
2022/10/20 09:04:49;;;;;;;;;;;;;;;;;;5134920;27;19956;-57
2022/10/20 09:07:14;;;;;;;;;;;;;;;;;;5134948;27;19907;-57
2022/10/20 09:09:39;;;;;;;;;;;;;;;;;;5134825;27;19908;-58
2022/10/20 09:12:04;;;;;;;;;;;;;;;;;;5134839;27;19914;-57
2022/10/20 09:14:29;;;;;;;;;;;;;;;;;;5134747;27;20044;-57
2022/10/20 09:16:54;;;;;;;;;;;;;;;;;;5135025;27;19930;-58
2022/10/20 09:19:19;;;;;;;;;;;;;;;;;;5134557;27;20366;-59
2022/10/20 09:21:44;;;;;;;;;;;;;;;;;;5134745;27;19918;-58
2022/10/20 09:24:09;;;;;;;;;;;;;;;;;;5132468;27;19907;-59
2022/10/20 09:26:34;;;;;;;;;;;;;;;;;;5134223;27;19983;-59
2022/10/20 09:28:59;;;;;;;;;;;;;;;;;;5134679;27;19907;-59
2022/10/20 09:31:25;;;;;;;;;;;;;;;;;;5134384;27;19959;-59
2022/10/20 09:33:50;;;;;;;;;;;;;;;;;;5134336;27;19908;-59
2022/10/20 09:36:15;;;;;;;;;;;;;;;;;;5134473;27;20013;-58
2022/10/20 09:38:40;;;;;;;;;;;;;;;;;;5134426;27;20325;-58
2022/10/20 09:41:05;;;;;;;;;;;;;;;;;;5134015;27;19954;-58
2022/10/20 09:43:30;;;;;;;;;;;;;;;;;;5134236;27;19911;-58
2022/10/20 09:45:56;;;;;;;;;;;;;;;;;;5134265;27;19912;-57
2022/10/20 09:48:21;;;;;;;;;;;;;;;;;;5134753;27;19994;-58
2022/10/20 09:50:46;;;;;;;;;;;;;;;;;;5134151;27;19907;-57
2022/10/20 09:53:11;;;;;;;;;;;;;;;;;;5133780;27;19908;-58
2022/10/20 09:55:40;;;;;;;;;;;;;;;;;;5133832;27;19992;-58
2022/10/20 09:58:05;;;;;;;;;;;;;;;;;;5133917;27;19908;-58
2022/10/20 10:00:31;;;;;;;;;;;;;;;;;;5134207;27;19922;-58
2022/10/20 10:02:56;;;;;;;;;;;;;;;;;;5133612;27;20758;-58
2022/10/20 10:05:21;;;;;;;;;;;;;;;;;;5133749;27;20050;-58
2022/10/20 10:07:46;;;;;;;;;;;;;;;;;;5133942;27;20367;-58
2022/10/20 10:10:11;;;;;;;;;;;;;;;;;;5133717;27;19958;-58
2022/10/20 10:12:36;;;;;;;;;;;;;;;;;;5133405;27;19918;-59
2022/10/20 10:15:01;;;;;;;;;;;;;;;;;;5133336;27;20274;-57
2022/10/20 10:17:26;;;;;;;;;;;;;;;;;;5133803;27;19907;-57
2022/10/20 10:19:51;;;;;;;;;;;;;;;;;;5133905;27;19944;-58
2022/10/20 10:22:16;;;;;;;;;;;;;;;;;;5133370;27;20290;-58
2022/10/20 10:24:41;;;;;;;;;;;;;;;;;;5133407;27;19907;-58
2022/10/20 10:27:07;;;;;;;;;;;;;;;;;;5133311;27;19926;-58
2022/10/20 10:29:32;;;;;;;;;;;;;;;;;;5133396;27;20406;-58
2022/10/20 10:31:57;;;;;;;;;;;;;;;;;;5133047;27;19916;-57
2022/10/20 10:34:22;;;;;;;;;;;;;;;;;;5133088;27;19911;-58
2022/10/20 10:36:47;;;;;;;;;;;;;;;;;;5133401;27;20010;-58
2022/10/20 10:39:12;;;;;;;;;;;;;;;;;;5132308;27;19950;-58
2022/10/20 10:41:37;;;;;;;;;;;;;;;;;;5133048;27;19919;-58
2022/10/20 10:44:02;;;;;;;;;;;;;;;;;;5130990;27;19915;-58
2022/10/20 10:46:27;;;;;;;;;;;;;;;;;;5133134;27;20358;-58
2022/10/20 10:48:52;;;;;;;;;;;;;;;;;;5133072;27;19908;-58
2022/10/20 10:51:17;;;;;;;;;;;;;;;;;;5132903;27;20014;-60
2022/10/20 10:53:43;;;;;;;;;;;;;;;;;;5132690;27;20014;-58
2022/10/20 10:56:08;;;;;;;;;;;;;;;;;;5132754;27;19911;-58
2022/10/20 10:58:33;;;;;;;;;;;;;;;;;;5133107;27;19912;-58
2022/10/20 11:00:58;;;;;;;;;;;;;;;;;;5132811;27;19919;-58
2022/10/20 11:03:23;;;;;;;;;;;;;;;;;;5132529;27;19945;-58
2022/10/20 11:05:48;;;;;;;;;;;;;;;;;;5132666;27;19908;-58
2022/10/20 11:08:13;;;;;;;;;;;;;;;;;;5132568;27;19914;-59
2022/10/20 11:10:39;;;;;;;;;;;;;;;;;;5132483;27;19999;-58
2022/10/20 11:13:04;;;;;;;;;;;;;;;;;;5132453;27;19951;-58
2022/10/20 11:15:29;;;;;;;;;;;;;;;;;;5130995;27;19914;-58
2022/10/20 11:17:54;;;;;;;;;;;;;;;;;;5132481;27;19911;-58
2022/10/20 11:20:19;;;;;;;;;;;;;;;;;;5132175;27;20382;-58
2022/10/20 11:22:45;;;;;;;;;;;;;;;;;;5132549;27;19933;-59
2022/10/20 11:25:10;;;;;;;;;;;;;;;;;;5132325;27;19996;-59
2022/10/20 11:27:35;;;;;;;;;;;;;;;;;;5132442;27;19929;-58
2022/10/20 11:30:04;;;;;;;;;;;;;;;;;;5132047;27;19915;-58
2022/10/20 11:32:29;;;;;;;;;;;;;;;;;;5132313;27;19957;-58
2022/10/20 11:34:54;;;;;;;;;;;;;;;;;;5132257;27;20396;-58
2022/10/20 11:37:19;;;;;;;;;;;;;;;;;;5132182;28;19912;-58
2022/10/20 11:39:44;;;;;;;;;;;;;;;;;;5131969;28;19908;-56
2022/10/20 11:42:09;;;;;;;;;;;;;;;;;;5132132;28;19960;-58
2022/10/20 11:44:34;;;;;;;;;;;;;;;;;;5132125;28;19914;-58
2022/10/20 11:46:59;;;;;;;;;;;;;;;;;;5132234;28;20274;-58
2022/10/20 11:49:25;;;;;;;;;;;;;;;;;;5133965;27;19953;-58
2022/10/20 11:51:50;;;;;;;;;;;;;;;;;;5136691;27;19908;-58
2022/10/20 11:54:15;;;;;;;;;;;;;;;;;;5136367;27;20274;-58
2022/10/20 11:56:40;;;;;;;;;;;;;;;;;;5136322;27;19907;-57
2022/10/20 11:59:05;;;;;;;;;;;;;;;;;;5136123;27;19998;-59
2022/10/20 12:01:30;;;;;;;;;;;;;;;;;;5136224;27;19911;-59
2022/10/20 12:03:55;;;;;;;;;;;;;;;;;;5136053;27;20384;-58
2022/10/20 12:06:20;;;;;;;;;;;;;;;;;;5136193;27;19911;-59
2022/10/20 12:08:45;;;;;;;;;;;;;;;;;;5136291;27;19907;-58
2022/10/20 12:11:10;;;;;;;;;;;;;;;;;;5135985;27;19964;-59
2022/10/20 12:13:35;;;;;;;;;;;;;;;;;;5135842;27;19907;-58
2022/10/20 12:16:01;;;;;;;;;;;;;;;;;;5135631;27;19965;-58
2022/10/20 12:18:26;;;;;;;;;;;;;;;;;;5135920;27;19950;-59
2022/10/20 12:20:51;;;;;;;;;;;;;;;;;;5135877;27;19919;-59
2022/10/20 12:23:16;;;;;;;;;;;;;;;;;;5135737;27;19964;-58
2022/10/20 12:25:41;;;;;;;;;;;;;;;;;;5135810;27;20010;-59
2022/10/20 12:28:06;;;;;;;;;;;;;;;;;;5135753;27;19960;-59
2022/10/20 12:30:31;;;;;;;;;;;;;;;;;;5135511;27;19920;-58
2022/10/20 12:32:59;;;;;;;;;;;;;;;;;;5135408;27;20262;-59
2022/10/20 12:35:24;;;;;;;;;;;;;;;;;;5135472;27;20320;-59
2022/10/20 12:37:49;;;;;;;;;;;;;;;;;;5135880;27;20296;-59
2022/10/20 12:40:15;;;;;;;;;;;;;;;;;;5135757;27;19912;-59
2022/10/20 12:42:40;;;;;;;;;;;;;;;;;;5135244;27;19988;-59
2022/10/20 12:45:05;;;;;;;;;;;;;;;;;;5135381;27;19908;-59
2022/10/20 12:47:30;;;;;;;;;;;;;;;;;;5135442;27;19912;-56
2022/10/20 12:49:55;;;;;;;;;;;;;;;;;;5135449;27;19946;-58
2022/10/20 12:52:20;;;;;;;;;;;;;;;;;;5135068;27;20346;-60
2022/10/20 12:54:45;;;;;;;;;;;;;;;;;;5135334;27;19956;-59
2022/10/20 12:57:10;;;;;;;;;;;;;;;;;;5135119;27;19911;-59
2022/10/20 12:59:37;;;;;;;;;;;;;;;;;;5135456;27;20428;-58
2022/10/20 13:02:02;;;;;;;;;;;;;;;;;;5134516;27;19907;-59
2022/10/20 13:04:27;;;;;;;;;;;;;;;;;;5134938;27;19964;-59
2022/10/20 13:06:52;;;;;;;;;;;;;;;;;;5134927;27;20035;-59
2022/10/20 13:09:18;;;;;;;;;;;;;;;;;;5134644;27;19912;-59
2022/10/20 13:11:43;;;;;;;;;;;;;;;;;;5134779;27;19929;-58
2022/10/20 13:14:09;;;;;;;;;;;;;;;;;;5134972;27;20048;-58
2022/10/20 13:16:34;;;;;;;;;;;;;;;;;;5135088;27;19915;-58
2022/10/20 13:18:59;;;;;;;;;;;;;;;;;;5134611;27;19913;-58
2022/10/20 13:21:24;;;;;;;;;;;;;;;;;;5134841;27;19907;-59
2022/10/20 13:23:49;;;;;;;;;;;;;;;;;;5134372;27;19907;-59
2022/10/20 13:26:15;;;;;;;;;;;;;;;;;;5134296;27;20350;-59
2022/10/20 13:28:40;;;;;;;;;;;;;;;;;;5134583;27;19908;-59
2022/10/20 13:31:06;;;;;;;;;;;;;;;;;;5134349;27;19919;-59
2022/10/20 13:33:31;;;;;;;;;;;;;;;;;;5134209;27;19934;-59
2022/10/20 13:35:56;;;;;;;;;;;;;;;;;;5134599;27;20358;-58
2022/10/20 13:38:21;;;;;;;;;;;;;;;;;;5134261;27;19943;-59
2022/10/20 13:40:46;;;;;;;;;;;;;;;;;;5134268;27;19958;-59
2022/10/20 13:43:11;;;;;;;;;;;;;;;;;;5134219;27;19955;-59
2022/10/20 13:45:36;;;;;;;;;;;;;;;;;;5134100;27;19911;-59
2022/10/20 13:48:01;;;;;;;;;;;;;;;;;;5134604;27;20257;-59
2022/10/20 13:50:26;;;;;;;;;;;;;;;;;;5134071;27;19911;-59
2022/10/20 13:52:51;;;;;;;;;;;;;;;;;;5134436;27;19907;-58
2022/10/20 13:55:16;;;;;;;;;;;;;;;;;;5133845;27;19911;-59
2022/10/20 13:57:42;;;;;;;;;;;;;;;;;;5134175;27;19907;-59
2022/10/20 14:00:07;;;;;;;;;;;;;;;;;;5134137;27;19915;-58
2022/10/20 14:02:32;;;;;;;;;;;;;;;;;;5133739;27;19908;-59
2022/10/20 14:04:57;;;;;;;;;;;;;;;;;;5133465;27;20318;-58
2022/10/20 14:07:22;;;;;;;;;;;;;;;;;;5134018;27;20373;-58
2022/10/20 14:09:47;;;;;;;;;;;;;;;;;;5134169;27;19907;-59
2022/10/20 14:12:13;;;;;;;;;;;;;;;;;;5132240;27;19972;-59
2022/10/20 14:14:38;;;;;;;;;;;;;;;;;;5133298;27;20346;-59
2022/10/20 14:17:03;;;;;;;;;;;;;;;;;;5133754;27;19954;-59
2022/10/20 14:19:29;;;;;;;;;;;;;;;;;;5133474;27;19914;-59
2022/10/20 14:21:55;;;;;;;;;;;;;;;;;;5133732;27;19908;-58
2022/10/20 14:24:21;;;;;;;;;;;;;;;;;;5133136;27;20069;-59
2022/10/20 14:26:46;;;;;;;;;;;;;;;;;;5133444;27;19907;-59
2022/10/20 14:29:11;;;;;;;;;;;;;;;;;;5133585;27;19915;-58
2022/10/20 14:31:36;;;;;;;;;;;;;;;;;;5132997;27;20282;-59
2022/10/20 14:34:01;;;;;;;;;;;;;;;;;;5133086;27;19934;-58
2022/10/20 14:36:26;;;;;;;;;;;;;;;;;;5133086;27;19911;-59
2022/10/20 14:38:51;;;;;;;;;;;;;;;;;;5133252;27;19968;-58
2022/10/20 14:41:17;;;;;;;;;;;;;;;;;;5133006;27;20289;-59
2022/10/20 14:43:42;;;;;;;;;;;;;;;;;;5133249;27;19907;-59
2022/10/20 14:46:07;;;;;;;;;;;;;;;;;;5133073;27;19907;-59
2022/10/20 14:48:32;;;;;;;;;;;;;;;;;;5132947;27;19911;-59
2022/10/20 14:50:57;;;;;;;;;;;;;;;;;;5132983;27;19921;-59
2022/10/20 14:53:24;;;;;;;;;;;;;;;;;;5132971;27;19907;-59
2022/10/20 14:55:49;;;;;;;;;;;;;;;;;;5132874;27;20323;-59
2022/10/20 14:58:14;;;;;;;;;;;;;;;;;;5132956;27;19907;-59
2022/10/20 15:00:39;;;;;;;;;;;;;;;;;;5133012;27;19943;-58
2022/10/20 15:03:05;;;;;;;;;;;;;;;;;;5133076;27;19908;-59
2022/10/20 15:05:30;;;;;;;;;;;;;;;;;;5132706;27;20302;-59
2022/10/20 15:07:56;;;;;;;;;;;;;;;;;;5132777;27;19911;-58
2022/10/20 15:10:21;;;;;;;;;;;;;;;;;;5132544;27;19915;-59
2022/10/20 15:12:47;;;;;;;;;;;;;;;;;;5132288;27;19916;-58
2022/10/20 15:15:12;;;;;;;;;;;;;;;;;;5132518;27;20384;-58
2022/10/20 15:17:38;;;;;;;;;;;;;;;;;;5132464;27;20342;-58
2022/10/20 15:20:03;;;;;;;;;;;;;;;;;;5132631;27;19907;-58
2022/10/20 15:22:28;;;;;;;;;;;;;;;;;;5132367;27;20285;-58
2022/10/20 15:24:53;;;;;;;;;;;;;;;;;;5132041;27;19962;-59
2022/10/20 15:27:18;;;;;;;;;;;;;;;;;;5132340;27;19911;-58
2022/10/20 15:29:43;;;;;;;;;;;;;;;;;;5132478;27;19907;-58
2022/10/20 15:32:08;;;;;;;;;;;;;;;;;;5132085;27;19915;-58
2022/10/20 15:34:33;;;;;;;;;;;;;;;;;;5132095;27;20503;-58
2022/10/20 15:36:58;;;;;;;;;;;;;;;;;;5131984;27;19908;-58
2022/10/20 15:39:23;;;;;;;;;;;;;;;;;;5132036;28;19934;-58
2022/10/20 15:41:48;;;;;;;;;;;;;;;;;;5132114;28;19979;-58
2022/10/20 15:44:14;;;;;;;;;;;;;;;;;;5132237;28;19903;-59
2022/10/20 15:46:39;;;;;;;;;;;;;;;;;;5131732;28;19908;-59
2022/10/20 15:49:04;;;;;;;;;;;;;;;;;;5132131;28;19903;-59
2022/10/20 15:51:29;;;;;;;;;;;;;;;;;;5132145;28;19919;-58
2022/10/20 15:53:54;;;;;;;;;;;;;;;;;;5131931;28;19914;-58
2022/10/20 15:56:19;;;;;;;;;;;;;;;;;;5131598;28;19908;-58
2022/10/20 15:58:44;;;;;;;;;;;;;;;;;;5131784;28;20358;-57
2022/10/20 16:01:09;;;;;;;;;;;;;;;;;;5132163;28;19907;-58
2022/10/20 16:03:39;;;;;;;;;;;;;;;;;;5132072;28;20028;-57
2022/10/20 16:06:04;;;;;;;;;;;;;;;;;;5131749;28;19907;-58
2022/10/20 16:08:29;;;;;;;;;;;;;;;;;;5131624;28;19908;-58
2022/10/20 16:10:55;;;;;;;;;;;;;;;;;;5132193;28;20409;-58
2022/10/20 16:13:20;;;;;;;;;;;;;;;;;;5131701;28;20014;-58
2022/10/20 16:15:45;;;;;;;;;;;;;;;;;;5131782;28;20360;-58
2022/10/20 16:18:10;;;;;;;;;;;;;;;;;;5132039;28;19919;-59
2022/10/20 16:20:35;;;;;;;;;;;;;;;;;;5131757;28;19903;-59
2022/10/20 16:23:00;;;;;;;;;;;;;;;;;;5131906;28;20296;-59
2022/10/20 16:25:25;;;;;;;;;;;;;;;;;;5131949;28;19954;-57
2022/10/20 16:27:50;;;;;;;;;;;;;;;;;;5131967;28;19914;-57
2022/10/20 16:30:15;;;;;;;;;;;;;;;;;;5131453;28;19923;-57